Site:       
  Group:  
  From:      To:        
   
Sensor Name: Furnace      Latitude:-9.57320000 , Longitude:53.92290000
Please click on the Table Headers to view a Graph of the Observations.
TimeMax. Temp. (°C)Min. Temp. (°C)Mean Temp. (°C)Tot. Rain (mm)Mean Wind (kn)Max Gust (kn)Solar Rad. (J\cm2)Humidity (%)Atmos. Press. (mb)Temp. 5cm (°C)Temp. 10cm (°C)Temp. 20cm (°C)Temp. 30cm (°C)Temp. 50cm (°C)Temp. 100cm (°C)Grass Min. (°C)
16/05/2022 23:00:0014.70 14.10 14.40 0.00 13.90 21.60 0.00 74.10 1003.30 -999.00 17.10 16.90 16.10 14.00 12.10 -999.00
16/05/2022 22:00:0014.90 14.40 14.60 0.00 11.40 21.30 0.00 76.10 1004.00 -999.00 17.60 17.10 16.10 13.90 12.10 -999.00
16/05/2022 21:00:0014.70 14.50 14.60 0.00 9.30 14.50 1.40 74.70 1004.20 -999.00 18.00 17.20 16.10 13.90 12.10 -999.00
16/05/2022 20:00:0015.60 14.70 15.20 0.00 5.80 12.90 19.10 69.00 1003.70 -999.00 18.50 17.20 16.00 13.80 12.10 -999.00
16/05/2022 19:00:0016.80 15.50 16.10 0.00 4.10 12.40 44.90 70.10 1004.00 -999.00 18.90 17.10 15.90 13.80 12.10 -999.00
16/05/2022 18:00:0017.50 16.60 17.00 0.00 9.70 20.10 109.00 63.20 1004.00 -999.00 19.20 16.90 15.70 13.70 12.10 -999.00
16/05/2022 17:00:0018.40 16.80 17.60 0.00 8.90 15.80 163.30 68.10 1003.80 -999.00 19.30 16.60 15.50 13.70 12.10 -999.00
16/05/2022 16:00:0019.00 17.40 18.20 0.00 9.00 16.00 223.20 68.80 1003.40 -999.00 19.00 16.30 15.30 13.70 12.10 -999.00
16/05/2022 15:00:0019.00 18.20 18.60 0.00 10.20 21.00 301.30 67.80 1003.20 -999.00 18.60 15.90 15.10 13.70 12.10 -999.00
16/05/2022 14:00:0019.40 17.70 18.50 0.00 9.60 19.30 208.60 67.40 1002.90 -999.00 18.10 15.40 14.80 13.70 12.10 -999.00
16/05/2022 13:00:0019.30 18.40 18.80 0.00 9.90 16.50 296.70 61.70 1002.60 -999.00 17.20 15.00 14.70 13.70 12.00 -999.00
16/05/2022 12:00:0018.80 17.40 18.10 0.00 10.10 18.50 286.10 69.40 1002.30 -999.00 16.10 14.70 14.60 13.70 12.00 -999.00
16/05/2022 11:00:0018.20 16.20 17.20 0.00 9.00 15.40 209.50 80.90 1001.70 -999.00 15.20 14.60 14.60 13.70 12.00 -999.00
16/05/2022 10:00:0016.40 14.00 15.20 0.70 8.90 13.90 125.40 93.40 1001.40 -999.00 14.70 14.70 14.60 13.70 12.00 -999.00
16/05/2022 09:00:0014.10 13.60 13.80 0.50 8.70 16.60 32.50 94.60 1001.10 -999.00 14.60 14.70 14.60 13.70 12.00 -999.00
16/05/2022 08:00:0013.60 13.40 13.50 0.00 10.60 15.10 10.90 94.80 1000.70 -999.00 14.60 14.80 14.70 13.70 12.00 -999.00
16/05/2022 07:00:0013.40 13.20 13.30 0.00 11.50 19.30 8.40 95.20 1000.40 -999.00 14.70 14.90 14.80 13.70 12.00 -999.00
16/05/2022 06:00:0013.20 13.00 13.10 0.90 9.70 14.70 3.60 95.60 1000.40 -999.00 14.80 15.00 14.80 13.70 12.00 -999.00
16/05/2022 05:00:0013.40 13.10 13.20 1.80 8.70 14.30 0.00 94.90 1000.60 -999.00 14.90 15.10 14.90 13.70 12.00 -999.00
16/05/2022 04:00:0014.10 13.40 13.70 1.00 9.00 15.60 0.00 91.50 1000.90 -999.00 15.00 15.30 15.00 13.70 12.00 -999.00
16/05/2022 03:00:0014.20 14.00 14.10 0.00 10.60 20.60 0.00 86.00 1001.30 -999.00 15.20 15.40 15.10 13.60 12.00 -999.00
16/05/2022 02:00:0014.10 13.90 14.00 0.00 12.10 21.90 0.00 85.60 1001.40 -999.00 15.40 15.60 15.20 13.60 12.00 -999.00
16/05/2022 01:00:0014.30 13.90 14.10 0.00 10.70 18.40 0.00 83.40 1002.00 -999.00 15.60 15.80 15.30 13.60 12.00 -999.00
16/05/2022 00:00:0014.40 13.90 14.20 0.00 9.00 16.80 0.00 80.50 1002.60 15.80 16.00 16.00 15.40 13.50 12.00 11.40
15/05/2022 23:00:0014.80 14.30 14.50 0.00 9.00 16.10 0.00 77.70 1003.20 -999.00 16.30 16.20 -999.00 13.50 12.00 -999.00
15/05/2022 22:00:0014.90 14.40 14.70 0.00 9.20 16.60 0.00 79.30 1003.60 -999.00 16.80 16.30 -999.00 13.40 11.90 -999.00